sensor_id;sensor_type;location;lat;lon;timestamp;P1;durP1;ratioP1;P2;durP2;ratioP2
4597;SDS011;62772;48.646;8.906;2023-05-08T00:03:38;27.07;;;16.17;;
4597;SDS011;62772;48.646;8.906;2023-05-08T00:08:39;28.27;;;16.87;;
4597;SDS011;62772;48.646;8.906;2023-05-08T00:13:41;27.83;;;14.50;;
4597;SDS011;62772;48.646;8.906;2023-05-08T00:18:42;24.60;;;15.53;;
4597;SDS011;62772;48.646;8.906;2023-05-08T00:23:42;20.70;;;14.33;;
4597;SDS011;62772;48.646;8.906;2023-05-08T00:28:43;23.90;;;13.97;;
4597;SDS011;62772;48.646;8.906;2023-05-08T00:33:44;22.33;;;14.50;;
4597;SDS011;62772;48.646;8.906;2023-05-08T00:38:44;24.10;;;15.53;;
4597;SDS011;62772;48.646;8.906;2023-05-08T00:43:45;19.40;;;13.50;;
4597;SDS011;62772;48.646;8.906;2023-05-08T00:48:45;21.27;;;14.10;;
4597;SDS011;62772;48.646;8.906;2023-05-08T00:53:46;22.17;;;13.60;;
4597;SDS011;62772;48.646;8.906;2023-05-08T00:58:47;19.80;;;13.67;;
4597;SDS011;62772;48.646;8.906;2023-05-08T01:03:47;20.63;;;13.00;;
4597;SDS011;62772;48.646;8.906;2023-05-08T01:08:48;20.57;;;13.90;;
4597;SDS011;62772;48.646;8.906;2023-05-08T01:19:37;21.43;;;13.37;;
4597;SDS011;62772;48.646;8.906;2023-05-08T01:41:27;24.20;;;14.87;;
4597;SDS011;62772;48.646;8.906;2023-05-08T01:46:32;26.57;;;15.20;;
4597;SDS011;62772;48.646;8.906;2023-05-08T01:51:38;24.87;;;14.97;;
4597;SDS011;62772;48.646;8.906;2023-05-08T01:56:43;24.60;;;14.57;;
4597;SDS011;62772;48.646;8.906;2023-05-08T02:01:48;18.53;;;12.20;;
4597;SDS011;62772;48.646;8.906;2023-05-08T02:06:54;22.37;;;14.43;;
4597;SDS011;62772;48.646;8.906;2023-05-08T02:11:56;25.60;;;14.53;;
4597;SDS011;62772;48.646;8.906;2023-05-08T02:17:00;21.80;;;14.40;;
4597;SDS011;62772;48.646;8.906;2023-05-08T02:22:02;25.43;;;14.60;;
4597;SDS011;62772;48.646;8.906;2023-05-08T02:27:03;23.73;;;14.80;;
4597;SDS011;62772;48.646;8.906;2023-05-08T02:32:06;22.43;;;13.60;;
4597;SDS011;62772;48.646;8.906;2023-05-08T02:37:07;24.77;;;13.63;;
4597;SDS011;62772;48.646;8.906;2023-05-08T02:42:09;19.87;;;12.67;;
4597;SDS011;62772;48.646;8.906;2023-05-08T02:47:46;22.07;;;13.23;;
4597;SDS011;62772;48.646;8.906;2023-05-08T02:52:51;26.80;;;14.20;;
4597;SDS011;62772;48.646;8.906;2023-05-08T02:58:16;22.23;;;13.87;;
4597;SDS011;62772;48.646;8.906;2023-05-08T03:08:27;24.53;;;14.50;;
4597;SDS011;62772;48.646;8.906;2023-05-08T03:13:30;24.40;;;14.20;;
4597;SDS011;62772;48.646;8.906;2023-05-08T03:18:35;21.60;;;13.70;;
4597;SDS011;62772;48.646;8.906;2023-05-08T03:23:40;20.70;;;13.40;;
4597;SDS011;62772;48.646;8.906;2023-05-08T03:28:42;23.37;;;15.27;;
4597;SDS011;62772;48.646;8.906;2023-05-08T03:33:43;24.60;;;14.97;;
4597;SDS011;62772;48.646;8.906;2023-05-08T03:38:46;32.23;;;17.53;;
4597;SDS011;62772;48.646;8.906;2023-05-08T03:43:48;33.23;;;16.43;;
4597;SDS011;62772;48.646;8.906;2023-05-08T03:48:49;34.70;;;16.00;;
4597;SDS011;62772;48.646;8.906;2023-05-08T03:53:53;32.20;;;16.23;;
4597;SDS011;62772;48.646;8.906;2023-05-08T03:59:04;38.20;;;16.90;;
4597;SDS011;62772;48.646;8.906;2023-05-08T04:04:27;38.33;;;18.33;;
4597;SDS011;62772;48.646;8.906;2023-05-08T04:15:03;40.87;;;19.30;;
4597;SDS011;62772;48.646;8.906;2023-05-08T04:20:10;28.50;;;16.27;;
4597;SDS011;62772;48.646;8.906;2023-05-08T04:25:15;24.20;;;14.90;;
4597;SDS011;62772;48.646;8.906;2023-05-08T04:30:18;23.37;;;14.80;;
4597;SDS011;62772;48.646;8.906;2023-05-08T04:35:19;34.10;;;17.87;;
4597;SDS011;62772;48.646;8.906;2023-05-08T04:40:21;34.23;;;17.50;;
4597;SDS011;62772;48.646;8.906;2023-05-08T04:45:22;27.23;;;15.87;;
4597;SDS011;62772;48.646;8.906;2023-05-08T04:50:23;27.60;;;15.67;;
4597;SDS011;62772;48.646;8.906;2023-05-08T04:55:23;27.37;;;17.20;;
4597;SDS011;62772;48.646;8.906;2023-05-08T05:00:24;23.17;;;15.00;;
4597;SDS011;62772;48.646;8.906;2023-05-08T05:05:25;19.90;;;14.40;;
4597;SDS011;62772;48.646;8.906;2023-05-08T05:10:26;24.57;;;15.90;;
4597;SDS011;62772;48.646;8.906;2023-05-08T05:15:26;33.37;;;19.10;;
4597;SDS011;62772;48.646;8.906;2023-05-08T05:20:28;37.90;;;21.30;;
4597;SDS011;62772;48.646;8.906;2023-05-08T05:25:28;42.47;;;22.87;;
4597;SDS011;62772;48.646;8.906;2023-05-08T05:30:29;41.97;;;21.40;;
4597;SDS011;62772;48.646;8.906;2023-05-08T05:35:30;39.87;;;21.60;;
4597;SDS011;62772;48.646;8.906;2023-05-08T05:40:31;36.70;;;20.30;;
4597;SDS011;62772;48.646;8.906;2023-05-08T05:45:31;38.27;;;20.77;;
4597;SDS011;62772;48.646;8.906;2023-05-08T05:50:32;35.70;;;19.90;;
4597;SDS011;62772;48.646;8.906;2023-05-08T05:55:33;38.73;;;20.60;;
4597;SDS011;62772;48.646;8.906;2023-05-08T06:00:35;36.13;;;20.63;;
4597;SDS011;62772;48.646;8.906;2023-05-08T06:05:36;40.20;;;20.50;;
4597;SDS011;62772;48.646;8.906;2023-05-08T06:10:37;39.23;;;19.70;;
4597;SDS011;62772;48.646;8.906;2023-05-08T06:15:37;37.13;;;18.90;;
4597;SDS011;62772;48.646;8.906;2023-05-08T06:20:38;37.10;;;20.00;;
4597;SDS011;62772;48.646;8.906;2023-05-08T06:25:39;44.87;;;22.13;;
4597;SDS011;62772;48.646;8.906;2023-05-08T06:30:40;37.60;;;21.20;;
4597;SDS011;62772;48.646;8.906;2023-05-08T06:35:40;41.70;;;21.53;;
4597;SDS011;62772;48.646;8.906;2023-05-08T06:40:43;35.23;;;20.73;;
4597;SDS011;62772;48.646;8.906;2023-05-08T06:45:45;37.30;;;21.10;;
4597;SDS011;62772;48.646;8.906;2023-05-08T06:50:45;38.30;;;21.00;;
4597;SDS011;62772;48.646;8.906;2023-05-08T06:55:47;39.10;;;20.33;;
4597;SDS011;62772;48.646;8.906;2023-05-08T07:00:47;39.80;;;21.80;;
4597;SDS011;62772;48.646;8.906;2023-05-08T07:05:48;39.50;;;20.97;;
4597;SDS011;62772;48.646;8.906;2023-05-08T07:10:48;37.63;;;21.63;;
4597;SDS011;62772;48.646;8.906;2023-05-08T07:15:49;38.67;;;21.10;;
4597;SDS011;62772;48.646;8.906;2023-05-08T07:20:49;37.83;;;19.70;;
4597;SDS011;62772;48.646;8.906;2023-05-08T07:25:50;33.50;;;19.30;;
4597;SDS011;62772;48.646;8.906;2023-05-08T07:30:51;35.90;;;19.67;;
4597;SDS011;62772;48.646;8.906;2023-05-08T07:35:51;34.53;;;21.00;;
4597;SDS011;62772;48.646;8.906;2023-05-08T07:40:51;37.90;;;20.80;;
4597;SDS011;62772;48.646;8.906;2023-05-08T07:45:56;44.13;;;21.77;;
4597;SDS011;62772;48.646;8.906;2023-05-08T07:50:57;38.83;;;20.27;;
4597;SDS011;62772;48.646;8.906;2023-05-08T07:55:57;32.97;;;19.20;;
4597;SDS011;62772;48.646;8.906;2023-05-08T08:00:58;29.87;;;18.27;;
4597;SDS011;62772;48.646;8.906;2023-05-08T08:05:58;42.73;;;19.37;;
4597;SDS011;62772;48.646;8.906;2023-05-08T08:10:59;29.13;;;17.20;;
4597;SDS011;62772;48.646;8.906;2023-05-08T08:15:59;31.33;;;17.80;;
4597;SDS011;62772;48.646;8.906;2023-05-08T08:21:03;29.23;;;17.13;;
4597;SDS011;62772;48.646;8.906;2023-05-08T08:26:04;31.70;;;17.93;;
4597;SDS011;62772;48.646;8.906;2023-05-08T08:31:05;24.63;;;15.40;;
4597;SDS011;62772;48.646;8.906;2023-05-08T08:36:11;26.50;;;16.03;;
4597;SDS011;62772;48.646;8.906;2023-05-08T08:41:12;24.77;;;14.97;;
4597;SDS011;62772;48.646;8.906;2023-05-08T08:46:14;28.37;;;15.07;;
4597;SDS011;62772;48.646;8.906;2023-05-08T08:51:23;33.47;;;15.27;;
4597;SDS011;62772;48.646;8.906;2023-05-08T08:56:27;23.83;;;14.50;;
4597;SDS011;62772;48.646;8.906;2023-05-08T09:01:30;20.70;;;14.27;;
4597;SDS011;62772;48.646;8.906;2023-05-08T09:06:35;22.47;;;13.57;;
4597;SDS011;62772;48.646;8.906;2023-05-08T09:11:36;21.77;;;12.40;;
4597;SDS011;62772;48.646;8.906;2023-05-08T09:16:39;18.53;;;12.47;;
4597;SDS011;62772;48.646;8.906;2023-05-08T09:21:40;19.30;;;12.07;;
4597;SDS011;62772;48.646;8.906;2023-05-08T09:26:40;23.63;;;11.87;;
4597;SDS011;62772;48.646;8.906;2023-05-08T09:31:43;18.83;;;12.10;;
4597;SDS011;62772;48.646;8.906;2023-05-08T09:36:44;21.23;;;13.87;;
4597;SDS011;62772;48.646;8.906;2023-05-08T09:41:58;19.10;;;12.47;;
4597;SDS011;62772;48.646;8.906;2023-05-08T09:47:09;21.73;;;14.17;;
4597;SDS011;62772;48.646;8.906;2023-05-08T09:52:14;22.70;;;15.90;;
4597;SDS011;62772;48.646;8.906;2023-05-08T09:57:15;24.30;;;16.10;;
4597;SDS011;62772;48.646;8.906;2023-05-08T10:02:16;25.40;;;16.43;;
4597;SDS011;62772;48.646;8.906;2023-05-08T10:07:25;24.97;;;16.97;;
4597;SDS011;62772;48.646;8.906;2023-05-08T10:12:29;21.80;;;13.70;;
4597;SDS011;62772;48.646;8.906;2023-05-08T10:22:38;19.80;;;13.80;;
4597;SDS011;62772;48.646;8.906;2023-05-08T10:33:06;20.50;;;12.77;;
4597;SDS011;62772;48.646;8.906;2023-05-08T10:38:09;20.67;;;13.20;;
4597;SDS011;62772;48.646;8.906;2023-05-08T10:43:10;19.40;;;13.53;;
4597;SDS011;62772;48.646;8.906;2023-05-08T10:48:18;18.87;;;12.60;;
4597;SDS011;62772;48.646;8.906;2023-05-08T10:58:55;16.37;;;11.20;;
4597;SDS011;62772;48.646;8.906;2023-05-08T11:03:56;18.53;;;12.73;;
4597;SDS011;62772;48.646;8.906;2023-05-08T11:08:57;17.87;;;12.70;;
4597;SDS011;62772;48.646;8.906;2023-05-08T11:13:58;18.47;;;12.33;;
4597;SDS011;62772;48.646;8.906;2023-05-08T11:19:17;16.50;;;11.20;;
4597;SDS011;62772;48.646;8.906;2023-05-08T11:24:19;15.17;;;10.80;;
4597;SDS011;62772;48.646;8.906;2023-05-08T11:29:33;14.37;;;10.33;;
4597;SDS011;62772;48.646;8.906;2023-05-08T11:39:41;12.00;;;9.00;;
4597;SDS011;62772;48.646;8.906;2023-05-08T11:44:42;10.13;;;6.37;;
4597;SDS011;62772;48.646;8.906;2023-05-08T11:49:42;9.63;;;6.80;;
4597;SDS011;62772;48.646;8.906;2023-05-08T11:54:43;7.67;;;4.90;;
4597;SDS011;62772;48.646;8.906;2023-05-08T11:59:48;7.57;;;5.20;;
4597;SDS011;62772;48.646;8.906;2023-05-08T12:04:49;7.07;;;4.60;;
4597;SDS011;62772;48.646;8.906;2023-05-08T12:09:49;7.00;;;4.70;;
4597;SDS011;62772;48.646;8.906;2023-05-08T12:14:50;5.67;;;3.67;;
4597;SDS011;62772;48.646;8.906;2023-05-08T12:19:53;5.70;;;4.10;;
4597;SDS011;62772;48.646;8.906;2023-05-08T12:24:55;5.63;;;3.63;;
4597;SDS011;62772;48.646;8.906;2023-05-08T12:29:56;5.90;;;3.17;;
4597;SDS011;62772;48.646;8.906;2023-05-08T12:34:57;4.10;;;2.90;;
4597;SDS011;62772;48.646;8.906;2023-05-08T12:39:57;9.33;;;3.70;;
4597;SDS011;62772;48.646;8.906;2023-05-08T12:44:58;4.97;;;3.50;;
4597;SDS011;62772;48.646;8.906;2023-05-08T12:49:58;5.23;;;3.20;;
4597;SDS011;62772;48.646;8.906;2023-05-08T12:54:59;6.00;;;3.70;;
4597;SDS011;62772;48.646;8.906;2023-05-08T13:00:03;4.63;;;3.23;;
4597;SDS011;62772;48.646;8.906;2023-05-08T13:05:04;7.37;;;3.73;;
4597;SDS011;62772;48.646;8.906;2023-05-08T13:10:05;5.50;;;3.77;;
4597;SDS011;62772;48.646;8.906;2023-05-08T13:15:07;6.10;;;4.03;;
4597;SDS011;62772;48.646;8.906;2023-05-08T13:20:08;6.53;;;4.60;;
4597;SDS011;62772;48.646;8.906;2023-05-08T13:25:10;6.97;;;4.70;;
4597;SDS011;62772;48.646;8.906;2023-05-08T13:30:11;7.30;;;5.20;;
4597;SDS011;62772;48.646;8.906;2023-05-08T13:35:12;6.20;;;4.70;;
4597;SDS011;62772;48.646;8.906;2023-05-08T13:40:12;12.13;;;5.53;;
4597;SDS011;62772;48.646;8.906;2023-05-08T13:45:14;8.27;;;6.57;;
4597;SDS011;62772;48.646;8.906;2023-05-08T13:50:15;9.80;;;6.30;;
4597;SDS011;62772;48.646;8.906;2023-05-08T13:55:18;11.07;;;7.20;;
4597;SDS011;62772;48.646;8.906;2023-05-08T14:00:21;10.57;;;7.40;;
4597;SDS011;62772;48.646;8.906;2023-05-08T14:05:21;12.57;;;8.30;;
4597;SDS011;62772;48.646;8.906;2023-05-08T14:10:22;9.93;;;7.10;;
4597;SDS011;62772;48.646;8.906;2023-05-08T14:15:22;9.13;;;6.70;;
4597;SDS011;62772;48.646;8.906;2023-05-08T14:20:23;10.07;;;6.67;;
4597;SDS011;62772;48.646;8.906;2023-05-08T14:25:23;9.60;;;5.30;;
4597;SDS011;62772;48.646;8.906;2023-05-08T14:30:24;12.60;;;6.20;;
4597;SDS011;62772;48.646;8.906;2023-05-08T14:35:24;7.80;;;6.00;;
4597;SDS011;62772;48.646;8.906;2023-05-08T14:40:25;12.37;;;8.07;;
4597;SDS011;62772;48.646;8.906;2023-05-08T14:45:25;14.00;;;9.63;;
4597;SDS011;62772;48.646;8.906;2023-05-08T14:50:26;14.40;;;9.53;;
4597;SDS011;62772;48.646;8.906;2023-05-08T14:55:26;19.30;;;10.07;;
4597;SDS011;62772;48.646;8.906;2023-05-08T15:00:27;17.60;;;11.37;;
4597;SDS011;62772;48.646;8.906;2023-05-08T15:05:28;18.03;;;11.67;;
4597;SDS011;62772;48.646;8.906;2023-05-08T15:10:28;23.90;;;13.87;;
4597;SDS011;62772;48.646;8.906;2023-05-08T15:15:29;27.03;;;16.30;;
4597;SDS011;62772;48.646;8.906;2023-05-08T15:20:29;26.13;;;17.33;;
4597;SDS011;62772;48.646;8.906;2023-05-08T15:25:30;30.13;;;18.17;;
4597;SDS011;62772;48.646;8.906;2023-05-08T15:30:30;28.77;;;18.10;;
4597;SDS011;62772;48.646;8.906;2023-05-08T15:35:31;26.93;;;18.00;;
4597;SDS011;62772;48.646;8.906;2023-05-08T15:40:32;28.30;;;17.13;;
4597;SDS011;62772;48.646;8.906;2023-05-08T15:45:33;27.83;;;19.30;;
4597;SDS011;62772;48.646;8.906;2023-05-08T15:50:33;27.60;;;17.00;;
4597;SDS011;62772;48.646;8.906;2023-05-08T15:55:34;26.37;;;17.10;;
4597;SDS011;62772;48.646;8.906;2023-05-08T16:00:34;26.13;;;17.40;;
4597;SDS011;62772;48.646;8.906;2023-05-08T16:05:35;28.90;;;17.73;;
4597;SDS011;62772;48.646;8.906;2023-05-08T16:10:35;29.00;;;18.20;;
4597;SDS011;62772;48.646;8.906;2023-05-08T16:15:36;30.33;;;19.13;;
4597;SDS011;62772;48.646;8.906;2023-05-08T16:20:38;29.97;;;19.00;;
4597;SDS011;62772;48.646;8.906;2023-05-08T16:25:39;30.47;;;18.40;;
4597;SDS011;62772;48.646;8.906;2023-05-08T16:30:40;34.63;;;18.57;;
4597;SDS011;62772;48.646;8.906;2023-05-08T16:35:40;28.77;;;19.87;;
4597;SDS011;62772;48.646;8.906;2023-05-08T16:40:41;33.93;;;18.40;;
4597;SDS011;62772;48.646;8.906;2023-05-08T16:45:41;32.23;;;19.47;;
4597;SDS011;62772;48.646;8.906;2023-05-08T16:50:42;32.03;;;18.67;;
4597;SDS011;62772;48.646;8.906;2023-05-08T16:55:42;32.50;;;18.13;;
4597;SDS011;62772;48.646;8.906;2023-05-08T17:00:43;34.27;;;19.83;;
4597;SDS011;62772;48.646;8.906;2023-05-08T17:05:43;30.40;;;18.03;;
4597;SDS011;62772;48.646;8.906;2023-05-08T17:10:44;35.57;;;20.37;;
4597;SDS011;62772;48.646;8.906;2023-05-08T17:16:03;30.24;;;18.80;;
4597;SDS011;62772;48.646;8.906;2023-05-08T17:21:18;34.20;;;21.10;;
4597;SDS011;62772;48.646;8.906;2023-05-08T17:26:18;28.40;;;17.60;;
4597;SDS011;62772;48.646;8.906;2023-05-08T17:31:20;24.83;;;16.30;;
4597;SDS011;62772;48.646;8.906;2023-05-08T17:36:21;25.57;;;18.13;;
4597;SDS011;62772;48.646;8.906;2023-05-08T17:41:21;23.87;;;14.83;;
4597;SDS011;62772;48.646;8.906;2023-05-08T17:46:22;24.17;;;15.47;;
4597;SDS011;62772;48.646;8.906;2023-05-08T17:51:22;24.13;;;14.40;;
4597;SDS011;62772;48.646;8.906;2023-05-08T17:56:23;24.37;;;14.40;;
4597;SDS011;62772;48.646;8.906;2023-05-08T18:01:23;13.43;;;8.83;;
4597;SDS011;62772;48.646;8.906;2023-05-08T18:06:25;9.97;;;7.27;;
4597;SDS011;62772;48.646;8.906;2023-05-08T18:11:25;14.10;;;8.80;;
4597;SDS011;62772;48.646;8.906;2023-05-08T18:16:26;9.00;;;6.30;;
4597;SDS011;62772;48.646;8.906;2023-05-08T18:21:26;9.43;;;6.40;;
4597;SDS011;62772;48.646;8.906;2023-05-08T18:26:28;8.37;;;6.33;;
4597;SDS011;62772;48.646;8.906;2023-05-08T18:31:28;13.60;;;7.03;;
4597;SDS011;62772;48.646;8.906;2023-05-08T18:36:29;17.07;;;6.80;;
4597;SDS011;62772;48.646;8.906;2023-05-08T18:41:29;11.30;;;7.53;;
4597;SDS011;62772;48.646;8.906;2023-05-08T18:46:30;10.50;;;6.73;;
4597;SDS011;62772;48.646;8.906;2023-05-08T18:51:30;8.90;;;6.87;;
4597;SDS011;62772;48.646;8.906;2023-05-08T18:56:31;12.83;;;7.10;;
4597;SDS011;62772;48.646;8.906;2023-05-08T19:01:33;10.43;;;7.30;;
4597;SDS011;62772;48.646;8.906;2023-05-08T19:06:33;9.20;;;6.23;;
4597;SDS011;62772;48.646;8.906;2023-05-08T19:11:34;9.53;;;7.10;;
4597;SDS011;62772;48.646;8.906;2023-05-08T19:16:35;10.80;;;7.37;;
4597;SDS011;62772;48.646;8.906;2023-05-08T19:21:35;10.67;;;8.30;;
4597;SDS011;62772;48.646;8.906;2023-05-08T19:26:36;12.33;;;8.90;;
4597;SDS011;62772;48.646;8.906;2023-05-08T19:31:36;9.30;;;6.83;;
4597;SDS011;62772;48.646;8.906;2023-05-08T19:36:37;13.50;;;7.37;;
4597;SDS011;62772;48.646;8.906;2023-05-08T19:41:37;9.70;;;6.77;;
4597;SDS011;62772;48.646;8.906;2023-05-08T19:46:38;8.63;;;5.73;;
4597;SDS011;62772;48.646;8.906;2023-05-08T19:51:38;8.60;;;5.83;;
4597;SDS011;62772;48.646;8.906;2023-05-08T19:56:39;11.40;;;6.90;;
4597;SDS011;62772;48.646;8.906;2023-05-08T20:01:41;11.10;;;7.43;;
4597;SDS011;62772;48.646;8.906;2023-05-08T20:06:42;9.03;;;5.80;;
4597;SDS011;62772;48.646;8.906;2023-05-08T20:11:43;10.70;;;5.90;;
4597;SDS011;62772;48.646;8.906;2023-05-08T20:16:45;10.20;;;6.90;;
4597;SDS011;62772;48.646;8.906;2023-05-08T20:21:46;9.70;;;6.50;;
4597;SDS011;62772;48.646;8.906;2023-05-08T20:26:46;10.03;;;6.87;;
4597;SDS011;62772;48.646;8.906;2023-05-08T20:31:48;9.40;;;7.10;;
4597;SDS011;62772;48.646;8.906;2023-05-08T20:36:49;9.10;;;6.67;;
4597;SDS011;62772;48.646;8.906;2023-05-08T20:41:50;10.03;;;7.23;;
4597;SDS011;62772;48.646;8.906;2023-05-08T20:46:51;18.50;;;8.30;;
4597;SDS011;62772;48.646;8.906;2023-05-08T20:51:52;10.37;;;7.23;;
4597;SDS011;62772;48.646;8.906;2023-05-08T20:56:53;8.43;;;6.00;;
4597;SDS011;62772;48.646;8.906;2023-05-08T21:01:56;10.73;;;7.13;;
4597;SDS011;62772;48.646;8.906;2023-05-08T21:06:57;12.53;;;8.43;;
4597;SDS011;62772;48.646;8.906;2023-05-08T21:11:57;14.03;;;9.70;;
4597;SDS011;62772;48.646;8.906;2023-05-08T21:16:59;15.23;;;9.97;;
4597;SDS011;62772;48.646;8.906;2023-05-08T21:22:00;16.53;;;10.63;;
4597;SDS011;62772;48.646;8.906;2023-05-08T21:27:00;20.50;;;11.50;;
4597;SDS011;62772;48.646;8.906;2023-05-08T21:32:01;14.77;;;10.67;;
4597;SDS011;62772;48.646;8.906;2023-05-08T21:37:01;17.70;;;11.60;;
4597;SDS011;62772;48.646;8.906;2023-05-08T21:42:02;21.97;;;14.10;;
4597;SDS011;62772;48.646;8.906;2023-05-08T21:47:03;23.43;;;14.60;;
4597;SDS011;62772;48.646;8.906;2023-05-08T21:52:05;22.93;;;15.40;;
4597;SDS011;62772;48.646;8.906;2023-05-08T21:57:05;26.77;;;14.90;;
4597;SDS011;62772;48.646;8.906;2023-05-08T22:02:06;22.43;;;14.50;;
4597;SDS011;62772;48.646;8.906;2023-05-08T22:07:07;24.40;;;14.37;;
4597;SDS011;62772;48.646;8.906;2023-05-08T22:12:07;21.70;;;14.27;;
4597;SDS011;62772;48.646;8.906;2023-05-08T22:17:08;19.70;;;13.23;;
4597;SDS011;62772;48.646;8.906;2023-05-08T22:22:08;18.33;;;12.00;;
4597;SDS011;62772;48.646;8.906;2023-05-08T22:27:09;21.30;;;13.10;;
4597;SDS011;62772;48.646;8.906;2023-05-08T22:32:09;21.07;;;13.60;;
4597;SDS011;62772;48.646;8.906;2023-05-08T22:37:10;23.20;;;13.97;;
4597;SDS011;62772;48.646;8.906;2023-05-08T22:42:11;22.10;;;12.53;;
4597;SDS011;62772;48.646;8.906;2023-05-08T22:47:11;19.53;;;11.57;;
4597;SDS011;62772;48.646;8.906;2023-05-08T22:52:12;15.30;;;9.47;;
4597;SDS011;62772;48.646;8.906;2023-05-08T22:57:13;12.13;;;8.40;;
4597;SDS011;62772;48.646;8.906;2023-05-08T23:02:13;10.70;;;7.47;;
4597;SDS011;62772;48.646;8.906;2023-05-08T23:07:14;10.27;;;7.00;;
4597;SDS011;62772;48.646;8.906;2023-05-08T23:12:14;11.53;;;6.80;;
4597;SDS011;62772;48.646;8.906;2023-05-08T23:17:15;21.27;;;7.47;;
4597;SDS011;62772;48.646;8.906;2023-05-08T23:22:15;55.87;;;9.37;;
4597;SDS011;62772;48.646;8.906;2023-05-08T23:27:16;23.00;;;9.03;;
4597;SDS011;62772;48.646;8.906;2023-05-08T23:32:16;13.60;;;8.93;;
4597;SDS011;62772;48.646;8.906;2023-05-08T23:37:17;19.37;;;10.10;;
4597;SDS011;62772;48.646;8.906;2023-05-08T23:42:17;17.43;;;9.87;;
4597;SDS011;62772;48.646;8.906;2023-05-08T23:47:19;13.93;;;9.17;;
4597;SDS011;62772;48.646;8.906;2023-05-08T23:52:21;21.63;;;11.73;;
4597;SDS011;62772;48.646;8.906;2023-05-08T23:57:22;20.90;;;12.50;;
